createdAt,value
2022-11-04T00:02:55.681Z,84.70
2022-11-04T00:05:44.195Z,84.70
2022-11-04T00:08:33.108Z,84.70
2022-11-04T00:11:39.830Z,84.70
2022-11-04T00:14:30.367Z,84.70
2022-11-04T00:17:22.418Z,84.70
2022-11-04T00:20:28.984Z,84.80
2022-11-04T00:23:35.385Z,84.70
2022-11-04T00:26:41.547Z,84.70
2022-11-04T00:29:31.840Z,84.80
2022-11-04T00:32:38.253Z,84.80
2022-11-04T00:35:26.466Z,84.70
2022-11-04T00:38:15.006Z,84.80
2022-11-04T00:41:03.623Z,84.80
2022-11-04T00:43:51.780Z,84.80
2022-11-04T00:46:41.429Z,84.90
2022-11-04T00:49:29.934Z,84.80
2022-11-04T00:52:18.717Z,84.90
2022-11-04T00:55:08.812Z,84.90
2022-11-04T00:57:59.910Z,84.90
2022-11-04T01:00:48.406Z,84.90
2022-11-04T01:03:38.441Z,84.90
2022-11-04T01:06:27.975Z,84.90
2022-11-04T01:09:16.318Z,84.80
2022-11-04T01:12:05.421Z,84.80
2022-11-04T01:14:53.980Z,84.90
2022-11-04T01:17:42.072Z,84.90
2022-11-04T01:20:33.151Z,84.90
2022-11-04T01:23:21.081Z,84.90
2022-11-04T01:26:10.957Z,84.90
2022-11-04T01:29:00.448Z,84.90
2022-11-04T01:31:49.117Z,84.90
2022-11-04T01:34:42.396Z,84.90
2022-11-04T01:37:33.711Z,84.90
2022-11-04T01:40:22.247Z,84.90
2022-11-04T01:43:15.959Z,84.80
2022-11-04T01:46:05.272Z,84.80
2022-11-04T01:48:56.393Z,84.80
2022-11-04T01:51:46.309Z,84.80
2022-11-04T01:54:38.485Z,84.80
2022-11-04T01:57:34.387Z,84.70
2022-11-04T02:00:23.106Z,84.70
2022-11-04T02:03:14.744Z,84.70
2022-11-04T02:06:04.283Z,84.70
2022-11-04T02:08:52.641Z,84.80
2022-11-04T02:11:59.814Z,84.80
2022-11-04T02:14:49.923Z,84.80
2022-11-04T02:18:00.306Z,84.80
2022-11-04T02:21:18.161Z,84.80
2022-11-04T02:24:35.724Z,84.90
2022-11-04T02:27:38.249Z,84.80
2022-11-04T02:30:31.421Z,84.80
2022-11-04T02:33:23.844Z,84.80
2022-11-04T02:36:22.545Z,84.80
2022-11-04T02:39:22.788Z,84.80
2022-11-04T02:42:18.075Z,84.80
2022-11-04T02:45:15.656Z,84.80
2022-11-04T02:48:12.432Z,84.90
2022-11-04T02:51:06.595Z,84.90
2022-11-04T02:54:04.961Z,84.90
2022-11-04T02:56:55.246Z,84.90
2022-11-04T02:59:48.754Z,84.90
2022-11-04T03:02:40.762Z,85.00
2022-11-04T03:05:34.382Z,84.90
2022-11-04T03:08:26.591Z,85.00
2022-11-04T03:11:18.161Z,85.00
2022-11-04T03:14:09.242Z,85.10
2022-11-04T03:17:01.062Z,85.10
2022-11-04T03:19:56.392Z,85.10
2022-11-04T03:22:46.494Z,85.10
2022-11-04T03:25:40.585Z,85.10
2022-11-04T03:28:37.573Z,85.00
2022-11-04T03:31:34.333Z,85.10
2022-11-04T03:34:22.854Z,85.00
2022-11-04T03:37:11.304Z,85.00
2022-11-04T03:40:01.558Z,85.00
2022-11-04T03:42:57.358Z,85.00
2022-11-04T03:45:46.356Z,85.00
2022-11-04T03:48:34.675Z,85.00
2022-11-04T03:51:23.515Z,85.00
2022-11-04T03:54:11.559Z,85.10
2022-11-04T03:57:18.745Z,85.10
2022-11-04T04:00:11.517Z,85.00
2022-11-04T04:03:09.232Z,84.90
2022-11-04T04:06:04.985Z,85.00
2022-11-04T04:08:57.039Z,85.10
2022-11-04T04:11:51.606Z,85.00
2022-11-04T04:14:44.445Z,85.00
2022-11-04T04:17:37.349Z,85.00
2022-11-04T04:20:29.052Z,85.00
2022-11-04T04:23:35.554Z,85.00
2022-11-04T04:26:41.026Z,85.00
2022-11-04T04:29:30.920Z,85.00
2022-11-04T04:32:23.464Z,85.00
2022-11-04T04:35:30.407Z,85.00
2022-11-04T04:38:40.767Z,85.00
2022-11-04T04:41:49.654Z,85.00
2022-11-04T04:44:55.823Z,85.00
2022-11-04T04:47:47.678Z,85.00
2022-11-04T04:50:40.846Z,85.00
2022-11-04T04:53:29.001Z,85.10
2022-11-04T04:56:17.388Z,85.10
2022-11-04T04:59:06.153Z,85.10
2022-11-04T05:01:55.220Z,85.00
2022-11-04T05:04:44.902Z,85.00
2022-11-04T05:07:33.488Z,85.00
2022-11-04T05:10:22.007Z,85.10
2022-11-04T05:13:30.254Z,85.00
2022-11-04T05:16:18.774Z,85.00
2022-11-04T05:19:07.401Z,85.00
2022-11-04T05:21:56.897Z,85.00
2022-11-04T05:24:45.472Z,85.00
2022-11-04T05:27:33.413Z,85.10
2022-11-04T05:30:22.203Z,85.00
2022-11-04T05:33:10.744Z,85.00
2022-11-04T05:36:08.012Z,85.10
2022-11-04T05:38:57.376Z,85.20
2022-11-04T05:41:45.617Z,85.20
2022-11-04T05:44:33.728Z,85.20
2022-11-04T05:47:22.339Z,85.20
2022-11-04T05:50:10.599Z,85.20
2022-11-04T05:52:59.295Z,85.20
2022-11-04T05:55:49.097Z,85.20
2022-11-04T05:58:37.789Z,85.20
2022-11-04T06:01:29.630Z,85.30
2022-11-04T06:04:19.972Z,85.30
2022-11-04T06:07:08.075Z,85.30
2022-11-04T06:09:56.533Z,85.30
2022-11-04T06:12:46.027Z,85.30
2022-11-04T06:15:34.240Z,85.30
2022-11-04T06:18:22.116Z,85.30
2022-11-04T06:21:21.430Z,85.40
2022-11-04T06:24:09.643Z,85.40
2022-11-04T06:26:58.393Z,85.40
2022-11-04T06:29:47.608Z,85.40
2022-11-04T06:32:36.748Z,85.40
2022-11-04T06:35:25.146Z,85.40
2022-11-04T06:38:13.823Z,85.30
2022-11-04T06:41:02.118Z,85.40
2022-11-04T06:43:50.642Z,85.30
2022-11-04T06:46:42.010Z,85.30
2022-11-04T06:49:30.510Z,85.30
2022-11-04T06:52:18.561Z,85.30
2022-11-04T06:55:08.258Z,85.30
2022-11-04T06:57:56.276Z,85.30
2022-11-04T07:00:45.737Z,85.20
2022-11-04T07:03:35.898Z,85.20
2022-11-04T07:06:25.102Z,85.10
2022-11-04T07:09:15.095Z,85.10
2022-11-04T07:12:03.438Z,85.10
2022-11-04T07:14:51.529Z,85.10
2022-11-04T07:17:40.291Z,85.10
2022-11-04T07:20:30.126Z,85.10
2022-11-04T07:23:19.013Z,85.10
2022-11-04T07:26:09.377Z,85.10
2022-11-04T07:28:58.183Z,85.20
2022-11-04T07:31:46.141Z,85.20
2022-11-04T07:34:34.680Z,85.20
2022-11-04T07:37:24.362Z,85.10
2022-11-04T07:40:13.576Z,85.20
2022-11-04T07:43:01.643Z,85.20
2022-11-04T07:46:01.960Z,85.20
2022-11-04T07:48:50.500Z,85.80
2022-11-04T07:51:39.289Z,85.10
2022-11-04T07:54:29.016Z,85.10
2022-11-04T07:57:17.483Z,85.20
2022-11-04T08:00:07.325Z,85.10
2022-11-04T08:03:01.692Z,85.10
2022-11-04T08:05:56.718Z,85.10
2022-11-04T08:08:45.811Z,85.10
2022-11-04T08:11:35.293Z,85.10
2022-11-04T08:14:24.081Z,85.10
2022-11-04T08:17:12.518Z,85.10
2022-11-04T08:20:01.242Z,85.10
2022-11-04T08:22:49.261Z,85.10
2022-11-04T08:25:38.592Z,85.10
2022-11-04T08:28:29.778Z,85.10
2022-11-04T08:31:21.165Z,85.10
2022-11-04T08:34:10.066Z,85.10
2022-11-04T08:37:00.319Z,85.10
2022-11-04T08:39:48.588Z,85.10
2022-11-04T08:42:37.278Z,85.10
2022-11-04T08:45:29.982Z,85.10
2022-11-04T08:48:22.273Z,85.00
2022-11-04T08:51:14.828Z,85.10
2022-11-04T08:54:05.104Z,85.10
2022-11-04T08:56:53.365Z,85.10
2022-11-04T08:59:42.019Z,85.10
2022-11-04T09:02:31.526Z,85.10
2022-11-04T09:05:20.468Z,85.10
2022-11-04T09:08:08.381Z,85.10
2022-11-04T09:10:57.392Z,85.10
2022-11-04T09:13:45.681Z,85.10
2022-11-04T09:16:36.516Z,85.10
2022-11-04T09:19:26.642Z,85.10
2022-11-04T09:22:14.951Z,85.10
2022-11-04T09:25:03.632Z,85.10
2022-11-04T09:27:52.237Z,85.20
2022-11-04T09:30:41.131Z,85.20
2022-11-04T09:33:29.576Z,85.20
2022-11-04T09:36:19.277Z,85.30
2022-11-04T09:39:07.501Z,85.20
2022-11-04T09:42:11.606Z,85.30
2022-11-04T09:45:21.301Z,85.80
2022-11-04T09:48:14.323Z,85.20
2022-11-04T09:51:06.629Z,85.30
2022-11-04T09:54:00.126Z,85.30
2022-11-04T09:56:51.405Z,85.30
2022-11-04T09:59:39.791Z,85.40
2022-11-04T10:02:43.774Z,85.30
2022-11-04T10:05:52.995Z,85.40
2022-11-04T10:09:02.362Z,85.40
2022-11-04T10:12:02.065Z,85.40
2022-11-04T10:15:25.914Z,85.40
2022-11-04T10:18:28.443Z,85.40
2022-11-04T10:21:28.568Z,85.40
2022-11-04T10:24:26.432Z,85.50
2022-11-04T10:27:18.495Z,86.00
2022-11-04T10:30:15.793Z,85.50
2022-11-04T10:33:11.102Z,85.50
2022-11-04T10:36:03.027Z,85.40
2022-11-04T10:38:55.280Z,85.50
2022-11-04T10:41:46.026Z,85.40
2022-11-04T10:44:36.809Z,85.40
2022-11-04T10:47:35.452Z,85.40
2022-11-04T10:50:32.703Z,85.40
2022-11-04T10:53:23.968Z,85.40
2022-11-04T10:56:20.070Z,85.40
2022-11-04T10:59:21.194Z,85.40
2022-11-04T11:02:10.090Z,85.30
2022-11-04T11:05:15.133Z,85.30
2022-11-04T11:08:03.433Z,85.30
2022-11-04T11:10:53.718Z,85.30
2022-11-04T11:13:44.302Z,85.30
2022-11-04T11:16:34.148Z,85.40
2022-11-04T11:19:25.133Z,85.30
2022-11-04T11:22:35.257Z,85.40
2022-11-04T11:25:28.805Z,85.40
2022-11-04T11:28:24.907Z,85.40
2022-11-04T11:31:23.411Z,85.40
2022-11-04T11:34:20.308Z,85.40
2022-11-04T11:37:21.207Z,85.40
2022-11-04T11:40:25.819Z,85.40
2022-11-04T11:43:25.410Z,85.40
2022-11-04T11:46:14.749Z,85.40
2022-11-04T11:49:05.048Z,85.40
2022-11-04T11:51:55.008Z,85.40
2022-11-04T11:54:46.308Z,85.40
2022-11-04T12:01:08.365Z,85.40
2022-11-04T12:10:50.546Z,85.50
2022-11-04T12:13:45.323Z,85.50
2022-11-04T12:16:39.345Z,85.50
2022-11-04T12:19:52.118Z,85.60
2022-11-04T12:22:54.333Z,85.60
2022-11-04T12:25:49.084Z,85.60
2022-11-04T12:28:46.858Z,85.50
2022-11-04T12:31:45.592Z,85.60
2022-11-04T12:34:46.555Z,85.60
2022-11-04T12:37:42.348Z,85.60
2022-11-04T12:40:45.524Z,85.60
2022-11-04T12:43:50.584Z,85.50
2022-11-04T12:46:45.918Z,85.40
2022-11-04T12:50:04.281Z,85.50
2022-11-04T12:53:34.021Z,85.40
2022-11-04T12:56:29.675Z,85.40
2022-11-04T12:59:45.245Z,85.50
2022-11-04T13:02:39.796Z,85.40
2022-11-04T13:05:41.136Z,85.40
2022-11-04T13:08:35.625Z,85.40
2022-11-04T13:11:29.606Z,85.40
2022-11-04T13:14:29.258Z,85.40
2022-11-04T13:17:21.458Z,85.40
2022-11-04T13:20:22.157Z,85.40
2022-11-04T13:23:18.653Z,85.40
2022-11-04T13:26:14.169Z,85.40
2022-11-04T13:29:12.280Z,85.40
2022-11-04T13:32:06.610Z,85.30
2022-11-04T13:35:02.743Z,85.30
2022-11-04T13:37:59.685Z,85.40
2022-11-04T13:41:01.947Z,85.30
2022-11-04T13:43:54.718Z,85.40
2022-11-04T13:46:52.749Z,85.40
2022-11-04T13:49:41.142Z,85.40
2022-11-04T13:52:32.969Z,85.40
2022-11-04T13:55:22.231Z,85.40
2022-11-04T13:58:22.406Z,85.40
2022-11-04T14:01:12.507Z,85.40
2022-11-04T14:04:20.994Z,85.50
2022-11-04T14:07:11.637Z,85.50
2022-11-04T14:10:00.720Z,85.50
2022-11-04T14:12:49.584Z,85.50
2022-11-04T14:16:02.767Z,85.60
2022-11-04T14:18:53.070Z,85.60
2022-11-04T14:22:07.802Z,85.60
2022-11-04T14:24:58.195Z,85.60
2022-11-04T14:27:48.987Z,85.60
2022-11-04T14:30:50.822Z,85.60
2022-11-04T14:33:42.265Z,85.60
2022-11-04T14:36:39.549Z,85.60
2022-11-04T14:39:32.166Z,85.60
2022-11-04T14:42:45.428Z,85.60
2022-11-04T14:45:41.361Z,85.60
2022-11-04T14:48:31.382Z,85.50
2022-11-04T14:51:27.758Z,85.60
2022-11-04T14:54:22.042Z,85.60
2022-11-04T14:57:16.092Z,85.60
2022-11-04T15:00:22.188Z,85.50
2022-11-04T15:03:57.508Z,85.50
2022-11-04T15:06:40.382Z,85.40
2022-11-04T15:09:31.373Z,85.40
2022-11-04T15:12:38.687Z,85.50
2022-11-04T15:15:37.401Z,85.40
2022-11-04T15:18:29.323Z,85.40
2022-11-04T15:21:17.883Z,85.40
2022-11-04T15:24:06.987Z,85.40
2022-11-04T15:26:58.870Z,85.40
2022-11-04T15:29:56.688Z,85.40
2022-11-04T15:32:55.153Z,85.40
2022-11-04T15:35:43.861Z,86.00
2022-11-04T15:38:32.768Z,85.50
2022-11-04T15:41:40.936Z,85.50
2022-11-04T15:44:31.932Z,85.50
2022-11-04T15:47:27.267Z,85.50
2022-11-04T15:50:24.598Z,85.50
2022-11-04T15:53:16.891Z,85.50
2022-11-04T15:56:05.442Z,85.50
2022-11-04T15:58:55.513Z,85.50
2022-11-04T16:01:48.280Z,85.50
2022-11-04T16:04:38.451Z,85.50
2022-11-04T16:07:26.704Z,86.00
2022-11-04T16:10:26.443Z,85.50
2022-11-04T16:13:25.809Z,85.50
2022-11-04T16:16:23.855Z,85.50
2022-11-04T16:19:23.099Z,85.50
2022-11-04T16:22:20.539Z,85.50
2022-11-04T16:25:20.116Z,85.50
2022-11-04T16:28:17.910Z,85.40
2022-11-04T16:31:09.020Z,85.40
2022-11-04T16:33:57.205Z,85.50
2022-11-04T16:36:45.653Z,85.40
2022-11-04T16:39:35.833Z,85.40
2022-11-04T16:42:24.787Z,85.30
2022-11-04T16:45:23.061Z,85.30
2022-11-04T16:48:16.128Z,85.40
2022-11-04T16:51:05.067Z,85.30
2022-11-04T16:53:54.685Z,85.30
2022-11-04T16:56:45.523Z,85.30
2022-11-04T16:59:33.519Z,85.30
2022-11-04T17:02:27.255Z,85.30
2022-11-04T17:05:15.434Z,85.40
2022-11-04T17:08:05.378Z,85.30
2022-11-04T17:10:54.768Z,85.30
2022-11-04T17:13:44.989Z,85.30
2022-11-04T17:16:33.006Z,85.30
2022-11-04T17:19:21.451Z,85.30
2022-11-04T17:22:09.916Z,85.30
2022-11-04T17:24:58.920Z,85.40
2022-11-04T17:27:47.466Z,85.40
2022-11-04T17:30:38.592Z,85.40
2022-11-04T17:33:27.093Z,85.40
2022-11-04T17:36:19.487Z,85.40
2022-11-04T17:39:07.536Z,85.40
2022-11-04T17:42:13.178Z,85.40
2022-11-04T17:45:01.629Z,85.50
2022-11-04T17:47:51.544Z,85.40
2022-11-04T17:50:42.216Z,85.40
2022-11-04T17:53:30.723Z,85.40
2022-11-04T17:56:20.990Z,85.40
2022-11-04T17:59:10.648Z,85.40
2022-11-04T18:01:58.988Z,85.40
2022-11-04T18:04:48.902Z,85.40
2022-11-04T18:07:37.249Z,85.40
2022-11-04T18:10:25.799Z,85.40
2022-11-04T18:13:14.185Z,85.40
2022-11-04T18:16:10.586Z,85.40
2022-11-04T18:18:59.509Z,85.40
2022-11-04T18:21:50.569Z,85.50
2022-11-04T18:24:39.064Z,85.40
2022-11-04T18:27:27.649Z,85.50
2022-11-04T18:30:16.989Z,85.50
2022-11-04T18:33:05.957Z,85.50
2022-11-04T18:35:54.045Z,85.50
2022-11-04T18:38:43.677Z,85.50
2022-11-04T18:41:31.685Z,85.50
2022-11-04T18:44:22.199Z,85.40
2022-11-04T18:47:10.113Z,85.50
2022-11-04T18:49:58.701Z,85.40
2022-11-04T18:52:46.778Z,85.40
2022-11-04T18:55:36.723Z,85.50
2022-11-04T18:58:25.289Z,85.40
2022-11-04T19:01:18.368Z,85.50
2022-11-04T19:04:07.129Z,85.50
2022-11-04T19:06:55.730Z,85.50
2022-11-04T19:09:47.888Z,85.50
2022-11-04T19:12:55.701Z,85.50
2022-11-04T19:15:44.135Z,85.50
2022-11-04T19:18:32.433Z,85.50
2022-11-04T19:21:22.825Z,85.50
2022-11-04T19:24:12.554Z,85.50
2022-11-04T19:27:00.509Z,85.50
2022-11-04T19:29:50.958Z,85.50
2022-11-04T19:32:38.743Z,85.50
2022-11-04T19:35:27.119Z,85.50
2022-11-04T19:38:15.295Z,85.50
2022-11-04T19:41:05.413Z,85.40
2022-11-04T19:43:52.491Z,85.40
2022-11-04T19:46:42.889Z,85.50
2022-11-04T19:49:31.630Z,85.50
2022-11-04T19:52:20.503Z,85.60
2022-11-04T19:55:10.320Z,85.60
2022-11-04T19:57:59.375Z,85.60
2022-11-04T20:00:48.405Z,85.60
2022-11-04T20:03:38.752Z,85.60
2022-11-04T20:06:26.938Z,85.70
2022-11-04T20:09:15.755Z,85.70
2022-11-04T20:12:21.889Z,85.60
2022-11-04T20:15:11.983Z,85.70
2022-11-04T20:18:00.808Z,85.70
2022-11-04T20:20:50.704Z,85.70
2022-11-04T20:23:39.028Z,85.80
2022-11-04T20:26:29.017Z,85.70
2022-11-04T20:29:17.116Z,85.80
2022-11-04T20:32:05.962Z,85.80
2022-11-04T20:34:54.511Z,85.80
2022-11-04T20:37:44.820Z,85.80
2022-11-04T20:40:33.227Z,85.80
2022-11-04T20:43:21.818Z,85.90
2022-11-04T20:46:12.542Z,85.90
2022-11-04T20:49:03.666Z,85.90
2022-11-04T20:51:55.411Z,85.90
2022-11-04T20:54:45.933Z,85.90
2022-11-04T20:57:35.153Z,85.90
2022-11-04T21:00:23.700Z,85.90
2022-11-04T21:03:11.962Z,85.90
2022-11-04T21:06:00.596Z,85.90
2022-11-04T21:08:48.727Z,85.90
2022-11-04T21:11:39.732Z,85.90
2022-11-04T21:14:27.458Z,85.90
2022-11-04T21:17:15.885Z,85.90
2022-11-04T21:20:04.719Z,85.90
2022-11-04T21:22:53.275Z,85.90
2022-11-04T21:25:42.490Z,85.90
2022-11-04T21:28:32.357Z,86.00
2022-11-04T21:31:20.240Z,86.00
2022-11-04T21:34:08.904Z,86.50
2022-11-04T21:36:57.586Z,86.00
2022-11-04T21:39:46.444Z,86.50
2022-11-04T21:42:34.126Z,86.00
2022-11-04T21:45:24.080Z,86.00
2022-11-04T21:48:12.258Z,86.00
2022-11-04T21:51:05.919Z,86.00
2022-11-04T21:53:54.190Z,86.00
2022-11-04T21:56:42.681Z,85.90
2022-11-04T21:59:32.424Z,85.90
2022-11-04T22:02:22.722Z,85.90
2022-11-04T22:05:11.382Z,85.90
2022-11-04T22:08:18.017Z,85.90
2022-11-04T22:11:10.978Z,85.90
2022-11-04T22:14:01.417Z,85.90
2022-11-04T22:16:49.491Z,85.90
2022-11-04T22:19:39.325Z,85.90
2022-11-04T22:22:27.089Z,85.90
2022-11-04T22:25:15.657Z,85.90
2022-11-04T22:28:03.815Z,85.90
2022-11-04T22:30:52.399Z,85.90
2022-11-04T22:33:40.970Z,85.90
2022-11-04T22:36:32.310Z,85.90
2022-11-04T22:39:20.628Z,85.90
2022-11-04T22:42:09.248Z,85.80
2022-11-04T22:44:57.206Z,85.80
2022-11-04T22:47:45.573Z,85.80
2022-11-04T22:50:35.432Z,85.80
2022-11-04T22:53:26.723Z,85.80
2022-11-04T22:56:15.943Z,85.80
2022-11-04T22:59:04.618Z,85.80
2022-11-04T23:01:53.270Z,85.80
2022-11-04T23:04:42.242Z,85.80
2022-11-04T23:07:30.192Z,85.80
2022-11-04T23:10:37.058Z,85.80
2022-11-04T23:13:44.831Z,85.80
2022-11-04T23:16:47.481Z,85.80
2022-11-04T23:19:35.830Z,85.80
2022-11-04T23:22:41.672Z,85.90
2022-11-04T23:25:31.597Z,85.90
2022-11-04T23:28:36.896Z,85.90
2022-11-04T23:31:25.021Z,85.90
2022-11-04T23:34:31.196Z,85.90
2022-11-04T23:37:20.063Z,86.00
2022-11-04T23:40:10.055Z,85.90
2022-11-04T23:43:00.252Z,85.90
2022-11-04T23:46:06.052Z,86.00
2022-11-04T23:49:11.577Z,86.00
2022-11-04T23:52:17.024Z,86.00
2022-11-04T23:55:23.620Z,85.90
2022-11-04T23:58:30.569Z,85.90
